Reserve, Kansas
Current Conditions -  °F | °C
As of 2:15 AM on Friday 24 Oct 2014 (Local Time) from KFNB Reporting Station
Haze Haze  
Wind Chill: 59°   Ceiling: 300
Heat Index: 59°   Visibility: 3mi
Dew Point: 58°   Wind: 13mph
Humidity: 96%   Direction: 200°SSW
Pressure: 30.02"   Gusts: NA
Location:  39.9123°N, 95.5098°W
Report Text: KFNB 240715Z AUTO 20011KT 3SM BR BKN003 15/14 A3002 RMK AO2 T01500144
Loading
Personal Weather Stations






























Interactive Weather Map
Tropical Storm Tracking
New forecast layout! Learn more

10-Day Weather Forecast

Advertisements
Track Severe Weather on mobile